AWM weather

West Memphis Municipal Airport
West Memphis, Arkansas, United States

Public forecast

Using degrees Fahrenheit for public forecast. Weather courtesy of forecast.io.

Current aviation weather report (METAR) for West Memphis Municipal Airport

Retrieved 2020/05/25 14:53 UTC (1 hour ago):

KAWM 251453Z AUTO 16010KT 10SM CLR 28/21 A2994 RMK AO2 SLP133 T02780206 51004

Closest aviation forecast (TAF) to West Memphis Municipal Airport

Closest forecast is Memphis International Airport, 13.8 nm (25.6 km) ESE. Retrieved 2020/05/25 12:33 UTC (3 hours ago):

TAF KMEM 251130Z 2512/2618 15005KT P6SM SCT250 FM251500 17010KT P6SM SCT035 BKN250 FM260100 15006KT P6SM BKN250 FM260700 15006KT P6SM VCSH BKN060 OVC100 FM261500 17010KT P6SM VCSH SCT035 OVC060